sensor_id;sensor_type;location;lat;lon;timestamp;P1;durP1;ratioP1;P2;durP2;ratioP2
65567;SDS011;52211;50.154;8.682;2023-05-10T00:00:16;0.93;;;0.93;;
65567;SDS011;52211;50.154;8.682;2023-05-10T00:02:46;0.80;;;0.80;;
65567;SDS011;52211;50.154;8.682;2023-05-10T00:05:20;0.60;;;0.60;;
65567;SDS011;52211;50.154;8.682;2023-05-10T00:07:52;0.53;;;0.53;;
65567;SDS011;52211;50.154;8.682;2023-05-10T00:10:23;1.20;;;0.70;;
65567;SDS011;52211;50.154;8.682;2023-05-10T00:12:50;0.77;;;0.77;;
65567;SDS011;52211;50.154;8.682;2023-05-10T00:15:21;0.63;;;0.63;;
65567;SDS011;52211;50.154;8.682;2023-05-10T00:17:56;0.73;;;0.73;;
65567;SDS011;52211;50.154;8.682;2023-05-10T00:20:25;0.70;;;0.70;;
65567;SDS011;52211;50.154;8.682;2023-05-10T00:22:54;0.83;;;0.83;;
65567;SDS011;52211;50.154;8.682;2023-05-10T00:25:21;0.73;;;0.70;;
65567;SDS011;52211;50.154;8.682;2023-05-10T00:27:50;1.27;;;1.10;;
65567;SDS011;52211;50.154;8.682;2023-05-10T00:30:23;1.20;;;0.90;;
65567;SDS011;52211;50.154;8.682;2023-05-10T00:32:50;0.90;;;0.90;;
65567;SDS011;52211;50.154;8.682;2023-05-10T00:35:19;1.30;;;1.27;;
65567;SDS011;52211;50.154;8.682;2023-05-10T00:37:50;1.43;;;1.33;;
65567;SDS011;52211;50.154;8.682;2023-05-10T00:40:23;1.40;;;1.30;;
65567;SDS011;52211;50.154;8.682;2023-05-10T00:42:58;3.40;;;1.20;;
65567;SDS011;52211;50.154;8.682;2023-05-10T00:45:27;1.00;;;1.00;;
65567;SDS011;52211;50.154;8.682;2023-05-10T00:47:59;0.90;;;0.90;;
65567;SDS011;52211;50.154;8.682;2023-05-10T00:50:34;1.53;;;1.20;;
65567;SDS011;52211;50.154;8.682;2023-05-10T00:53:07;2.13;;;1.20;;
65567;SDS011;52211;50.154;8.682;2023-05-10T00:55:35;0.93;;;0.93;;
65567;SDS011;52211;50.154;8.682;2023-05-10T00:58:03;1.10;;;1.10;;
65567;SDS011;52211;50.154;8.682;2023-05-10T01:00:37;4.03;;;1.63;;
65567;SDS011;52211;50.154;8.682;2023-05-10T01:03:12;1.10;;;1.10;;
65567;SDS011;52211;50.154;8.682;2023-05-10T01:05:39;1.10;;;1.00;;
65567;SDS011;52211;50.154;8.682;2023-05-10T01:08:08;2.10;;;1.10;;
65567;SDS011;52211;50.154;8.682;2023-05-10T01:10:35;1.00;;;1.00;;
65567;SDS011;52211;50.154;8.682;2023-05-10T01:13:02;0.80;;;0.80;;
65567;SDS011;52211;50.154;8.682;2023-05-10T01:15:33;0.83;;;0.83;;
65567;SDS011;52211;50.154;8.682;2023-05-10T01:18:06;1.10;;;1.10;;
65567;SDS011;52211;50.154;8.682;2023-05-10T01:20:36;1.17;;;1.10;;
65567;SDS011;52211;50.154;8.682;2023-05-10T01:26:41;0.70;;;0.70;;
65567;SDS011;52211;50.154;8.682;2023-05-10T01:33:02;0.80;;;0.80;;
65567;SDS011;52211;50.154;8.682;2023-05-10T01:38:21;0.77;;;0.77;;
65567;SDS011;52211;50.154;8.682;2023-05-10T01:41:24;0.87;;;0.87;;
65567;SDS011;52211;50.154;8.682;2023-05-10T01:47:08;0.70;;;0.70;;
65567;SDS011;52211;50.154;8.682;2023-05-10T01:49:54;0.83;;;0.83;;
65567;SDS011;52211;50.154;8.682;2023-05-10T01:52:30;0.80;;;0.80;;
65567;SDS011;52211;50.154;8.682;2023-05-10T01:55:14;1.10;;;1.00;;
65567;SDS011;52211;50.154;8.682;2023-05-10T01:57:48;0.60;;;0.60;;
65567;SDS011;52211;50.154;8.682;2023-05-10T02:00:26;0.80;;;0.80;;
65567;SDS011;52211;50.154;8.682;2023-05-10T02:03:04;0.80;;;0.80;;
65567;SDS011;52211;50.154;8.682;2023-05-10T02:05:38;0.87;;;0.70;;
65567;SDS011;52211;50.154;8.682;2023-05-10T02:08:08;0.73;;;0.73;;
65567;SDS011;52211;50.154;8.682;2023-05-10T02:10:44;0.70;;;0.70;;
65567;SDS011;52211;50.154;8.682;2023-05-10T02:13:13;0.70;;;0.70;;
65567;SDS011;52211;50.154;8.682;2023-05-10T02:15:42;2.00;;;0.80;;
65567;SDS011;52211;50.154;8.682;2023-05-10T02:18:13;0.70;;;0.70;;
65567;SDS011;52211;50.154;8.682;2023-05-10T02:20:43;0.80;;;0.80;;
65567;SDS011;52211;50.154;8.682;2023-05-10T02:23:15;0.80;;;0.80;;
65567;SDS011;52211;50.154;8.682;2023-05-10T02:25:44;0.70;;;0.70;;
65567;SDS011;52211;50.154;8.682;2023-05-10T02:28:14;0.90;;;0.70;;
65567;SDS011;52211;50.154;8.682;2023-05-10T02:30:41;1.87;;;0.60;;
65567;SDS011;52211;50.154;8.682;2023-05-10T02:33:13;0.73;;;0.73;;
65567;SDS011;52211;50.154;8.682;2023-05-10T02:35:46;0.70;;;0.70;;
65567;SDS011;52211;50.154;8.682;2023-05-10T02:38:14;0.87;;;0.87;;
65567;SDS011;52211;50.154;8.682;2023-05-10T02:40:45;1.10;;;0.80;;
65567;SDS011;52211;50.154;8.682;2023-05-10T02:43:19;0.90;;;0.90;;
65567;SDS011;52211;50.154;8.682;2023-05-10T02:45:55;2.30;;;1.37;;
65567;SDS011;52211;50.154;8.682;2023-05-10T02:48:22;1.77;;;0.87;;
65567;SDS011;52211;50.154;8.682;2023-05-10T02:50:52;1.37;;;1.27;;
65567;SDS011;52211;50.154;8.682;2023-05-10T02:53:29;0.70;;;0.70;;
65567;SDS011;52211;50.154;8.682;2023-05-10T02:56:00;0.93;;;0.93;;
65567;SDS011;52211;50.154;8.682;2023-05-10T02:58:36;2.77;;;0.80;;
65567;SDS011;52211;50.154;8.682;2023-05-10T03:01:05;0.80;;;0.80;;
65567;SDS011;52211;50.154;8.682;2023-05-10T03:03:37;0.90;;;0.90;;
65567;SDS011;52211;50.154;8.682;2023-05-10T03:06:04;1.77;;;0.90;;
65567;SDS011;52211;50.154;8.682;2023-05-10T03:08:35;1.07;;;1.07;;
65567;SDS011;52211;50.154;8.682;2023-05-10T03:19:58;0.90;;;0.90;;
65567;SDS011;52211;50.154;8.682;2023-05-10T03:22:45;0.80;;;0.80;;
65567;SDS011;52211;50.154;8.682;2023-05-10T03:25:19;1.03;;;0.80;;
65567;SDS011;52211;50.154;8.682;2023-05-10T03:27:50;0.70;;;0.70;;
65567;SDS011;52211;50.154;8.682;2023-05-10T03:30:21;1.00;;;0.80;;
65567;SDS011;52211;50.154;8.682;2023-05-10T03:32:50;0.77;;;0.77;;
65567;SDS011;52211;50.154;8.682;2023-05-10T03:35:17;0.80;;;0.80;;
65567;SDS011;52211;50.154;8.682;2023-05-10T03:37:48;0.90;;;0.90;;
65567;SDS011;52211;50.154;8.682;2023-05-10T03:40:15;1.13;;;0.83;;
65567;SDS011;52211;50.154;8.682;2023-05-10T03:42:42;0.87;;;0.87;;
65567;SDS011;52211;50.154;8.682;2023-05-10T03:45:13;1.20;;;0.80;;
65567;SDS011;52211;50.154;8.682;2023-05-10T03:47:43;1.17;;;1.00;;
65567;SDS011;52211;50.154;8.682;2023-05-10T03:50:10;0.97;;;0.90;;
65567;SDS011;52211;50.154;8.682;2023-05-10T03:52:40;1.40;;;0.90;;
65567;SDS011;52211;50.154;8.682;2023-05-10T03:55:07;0.67;;;0.67;;
65567;SDS011;52211;50.154;8.682;2023-05-10T03:57:36;2.10;;;0.90;;
65567;SDS011;52211;50.154;8.682;2023-05-10T04:00:08;1.00;;;1.00;;
65567;SDS011;52211;50.154;8.682;2023-05-10T04:02:41;1.60;;;0.90;;
65567;SDS011;52211;50.154;8.682;2023-05-10T04:05:15;0.80;;;0.80;;
65567;SDS011;52211;50.154;8.682;2023-05-10T04:07:45;1.07;;;1.07;;
65567;SDS011;52211;50.154;8.682;2023-05-10T04:10:19;0.80;;;0.80;;
65567;SDS011;52211;50.154;8.682;2023-05-10T04:12:47;1.07;;;0.80;;
65567;SDS011;52211;50.154;8.682;2023-05-10T04:15:14;0.93;;;0.90;;
65567;SDS011;52211;50.154;8.682;2023-05-10T04:17:48;3.20;;;0.97;;
65567;SDS011;52211;50.154;8.682;2023-05-10T04:20:16;0.87;;;0.87;;
65567;SDS011;52211;50.154;8.682;2023-05-10T04:22:43;1.03;;;1.03;;
65567;SDS011;52211;50.154;8.682;2023-05-10T04:25:10;1.07;;;1.07;;
65567;SDS011;52211;50.154;8.682;2023-05-10T04:27:37;1.10;;;1.10;;
65567;SDS011;52211;50.154;8.682;2023-05-10T04:30:07;1.10;;;1.00;;
65567;SDS011;52211;50.154;8.682;2023-05-10T04:32:34;1.00;;;1.00;;
65567;SDS011;52211;50.154;8.682;2023-05-10T04:35:01;0.80;;;0.80;;
65567;SDS011;52211;50.154;8.682;2023-05-10T04:37:32;3.97;;;1.10;;
65567;SDS011;52211;50.154;8.682;2023-05-10T04:40:02;0.83;;;0.83;;
65567;SDS011;52211;50.154;8.682;2023-05-10T04:42:30;1.33;;;1.10;;
65567;SDS011;52211;50.154;8.682;2023-05-10T04:44:56;1.70;;;1.03;;
65567;SDS011;52211;50.154;8.682;2023-05-10T04:47:25;1.00;;;1.00;;
65567;SDS011;52211;50.154;8.682;2023-05-10T04:49:55;1.00;;;1.00;;
65567;SDS011;52211;50.154;8.682;2023-05-10T04:52:21;0.80;;;0.80;;
65567;SDS011;52211;50.154;8.682;2023-05-10T04:54:48;1.00;;;1.00;;
65567;SDS011;52211;50.154;8.682;2023-05-10T04:57:18;1.33;;;1.23;;
65567;SDS011;52211;50.154;8.682;2023-05-10T04:59:44;1.17;;;0.90;;
65567;SDS011;52211;50.154;8.682;2023-05-10T05:02:19;3.10;;;1.00;;
65567;SDS011;52211;50.154;8.682;2023-05-10T05:04:46;1.00;;;1.00;;
65567;SDS011;52211;50.154;8.682;2023-05-10T05:07:16;1.20;;;1.10;;
65567;SDS011;52211;50.154;8.682;2023-05-10T05:09:43;1.17;;;1.00;;
65567;SDS011;52211;50.154;8.682;2023-05-10T05:12:10;1.47;;;1.20;;
65567;SDS011;52211;50.154;8.682;2023-05-10T05:14:40;1.40;;;1.30;;
65567;SDS011;52211;50.154;8.682;2023-05-10T05:17:09;1.50;;;1.40;;
65567;SDS011;52211;50.154;8.682;2023-05-10T05:19:39;1.30;;;1.10;;
65567;SDS011;52211;50.154;8.682;2023-05-10T05:22:08;1.57;;;1.17;;
65567;SDS011;52211;50.154;8.682;2023-05-10T05:24:37;1.27;;;1.13;;
65567;SDS011;52211;50.154;8.682;2023-05-10T05:27:07;1.57;;;1.47;;
65567;SDS011;52211;50.154;8.682;2023-05-10T05:29:39;1.30;;;1.30;;
65567;SDS011;52211;50.154;8.682;2023-05-10T05:32:05;1.50;;;1.40;;
65567;SDS011;52211;50.154;8.682;2023-05-10T05:34:36;1.53;;;1.40;;
65567;SDS011;52211;50.154;8.682;2023-05-10T05:37:05;1.87;;;1.43;;
65567;SDS011;52211;50.154;8.682;2023-05-10T05:39:35;2.10;;;1.30;;
65567;SDS011;52211;50.154;8.682;2023-05-10T05:42:05;2.50;;;1.47;;
65567;SDS011;52211;50.154;8.682;2023-05-10T05:44:31;2.37;;;2.17;;
65567;SDS011;52211;50.154;8.682;2023-05-10T05:47:01;1.20;;;1.20;;
65567;SDS011;52211;50.154;8.682;2023-05-10T05:49:27;2.50;;;1.50;;
65567;SDS011;52211;50.154;8.682;2023-05-10T05:51:59;2.50;;;1.73;;
65567;SDS011;52211;50.154;8.682;2023-05-10T05:54:30;4.40;;;1.60;;
65567;SDS011;52211;50.154;8.682;2023-05-10T05:57:00;1.70;;;1.50;;
65567;SDS011;52211;50.154;8.682;2023-05-10T05:59:27;1.60;;;1.50;;
65567;SDS011;52211;50.154;8.682;2023-05-10T06:01:54;1.87;;;1.77;;
65567;SDS011;52211;50.154;8.682;2023-05-10T06:04:23;2.30;;;1.83;;
65567;SDS011;52211;50.154;8.682;2023-05-10T06:06:50;1.60;;;1.50;;
65567;SDS011;52211;50.154;8.682;2023-05-10T06:09:20;1.77;;;1.67;;
65567;SDS011;52211;50.154;8.682;2023-05-10T06:11:47;1.70;;;1.53;;
65567;SDS011;52211;50.154;8.682;2023-05-10T06:14:16;1.77;;;1.67;;
65567;SDS011;52211;50.154;8.682;2023-05-10T06:16:46;1.87;;;1.77;;
65567;SDS011;52211;50.154;8.682;2023-05-10T06:19:17;2.23;;;2.07;;
65567;SDS011;52211;50.154;8.682;2023-05-10T06:21:47;2.70;;;1.80;;
65567;SDS011;52211;50.154;8.682;2023-05-10T06:24:14;1.87;;;1.70;;
65567;SDS011;52211;50.154;8.682;2023-05-10T06:26:43;1.73;;;1.63;;
65567;SDS011;52211;50.154;8.682;2023-05-10T06:29:09;2.23;;;1.70;;
65567;SDS011;52211;50.154;8.682;2023-05-10T06:31:41;2.60;;;1.80;;
65567;SDS011;52211;50.154;8.682;2023-05-10T06:34:08;1.83;;;1.70;;
65567;SDS011;52211;50.154;8.682;2023-05-10T06:36:35;4.20;;;1.50;;
65567;SDS011;52211;50.154;8.682;2023-05-10T06:39:02;2.03;;;1.60;;
65567;SDS011;52211;50.154;8.682;2023-05-10T06:41:31;2.00;;;1.90;;
65567;SDS011;52211;50.154;8.682;2023-05-10T06:44:00;1.60;;;1.50;;
65567;SDS011;52211;50.154;8.682;2023-05-10T06:46:34;3.03;;;2.10;;
65567;SDS011;52211;50.154;8.682;2023-05-10T06:49:04;2.23;;;2.07;;
65567;SDS011;52211;50.154;8.682;2023-05-10T06:51:33;1.77;;;1.67;;
65567;SDS011;52211;50.154;8.682;2023-05-10T06:54:02;2.03;;;1.83;;
65567;SDS011;52211;50.154;8.682;2023-05-10T06:56:29;1.60;;;1.50;;
65567;SDS011;52211;50.154;8.682;2023-05-10T06:59:01;2.07;;;1.87;;
65567;SDS011;52211;50.154;8.682;2023-05-10T07:01:29;2.47;;;2.10;;
65567;SDS011;52211;50.154;8.682;2023-05-10T07:03:55;3.77;;;1.90;;
65567;SDS011;52211;50.154;8.682;2023-05-10T07:06:22;2.97;;;2.00;;
65567;SDS011;52211;50.154;8.682;2023-05-10T07:08:59;1.93;;;1.77;;
65567;SDS011;52211;50.154;8.682;2023-05-10T07:11:31;4.13;;;2.00;;
65567;SDS011;52211;50.154;8.682;2023-05-10T07:14:00;2.00;;;1.60;;
65567;SDS011;52211;50.154;8.682;2023-05-10T07:16:32;1.90;;;1.80;;
65567;SDS011;52211;50.154;8.682;2023-05-10T07:18:59;2.70;;;2.20;;
65567;SDS011;52211;50.154;8.682;2023-05-10T07:21:30;1.87;;;1.77;;
65567;SDS011;52211;50.154;8.682;2023-05-10T07:23:58;1.73;;;1.57;;
65567;SDS011;52211;50.154;8.682;2023-05-10T07:26:26;2.00;;;1.87;;
65567;SDS011;52211;50.154;8.682;2023-05-10T07:28:55;2.57;;;2.20;;
65567;SDS011;52211;50.154;8.682;2023-05-10T07:31:25;3.53;;;1.77;;
65567;SDS011;52211;50.154;8.682;2023-05-10T07:33:52;2.23;;;1.97;;
65567;SDS011;52211;50.154;8.682;2023-05-10T07:36:21;2.87;;;2.20;;
65567;SDS011;52211;50.154;8.682;2023-05-10T07:38:47;1.70;;;1.60;;
65567;SDS011;52211;50.154;8.682;2023-05-10T07:41:15;1.90;;;1.80;;
65567;SDS011;52211;50.154;8.682;2023-05-10T07:43:44;3.20;;;1.70;;
65567;SDS011;52211;50.154;8.682;2023-05-10T07:46:15;3.17;;;1.80;;
65567;SDS011;52211;50.154;8.682;2023-05-10T07:48:42;2.00;;;1.80;;
65567;SDS011;52211;50.154;8.682;2023-05-10T07:51:11;2.27;;;2.07;;
65567;SDS011;52211;50.154;8.682;2023-05-10T07:53:42;3.13;;;1.47;;
65567;SDS011;52211;50.154;8.682;2023-05-10T07:58:55;2.73;;;1.83;;
65567;SDS011;52211;50.154;8.682;2023-05-10T08:01:23;2.83;;;2.37;;
65567;SDS011;52211;50.154;8.682;2023-05-10T08:03:52;1.90;;;1.60;;
65567;SDS011;52211;50.154;8.682;2023-05-10T08:06:24;1.70;;;1.60;;
65567;SDS011;52211;50.154;8.682;2023-05-10T08:08:56;2.77;;;1.97;;
65567;SDS011;52211;50.154;8.682;2023-05-10T08:11:26;1.90;;;1.80;;
65567;SDS011;52211;50.154;8.682;2023-05-10T08:13:56;1.60;;;1.50;;
65567;SDS011;52211;50.154;8.682;2023-05-10T08:16:23;1.70;;;1.60;;
65567;SDS011;52211;50.154;8.682;2023-05-10T08:18:57;2.40;;;1.90;;
65567;SDS011;52211;50.154;8.682;2023-05-10T08:21:29;4.63;;;3.07;;
65567;SDS011;52211;50.154;8.682;2023-05-10T08:23:57;2.27;;;2.00;;
65567;SDS011;52211;50.154;8.682;2023-05-10T08:26:24;1.90;;;1.80;;
65567;SDS011;52211;50.154;8.682;2023-05-10T08:28:52;2.57;;;2.37;;
65567;SDS011;52211;50.154;8.682;2023-05-10T08:31:23;2.03;;;1.83;;
65567;SDS011;52211;50.154;8.682;2023-05-10T08:33:56;5.70;;;1.80;;
65567;SDS011;52211;50.154;8.682;2023-05-10T08:36:23;2.50;;;1.93;;
65567;SDS011;52211;50.154;8.682;2023-05-10T08:38:50;1.87;;;1.73;;
65567;SDS011;52211;50.154;8.682;2023-05-10T08:41:21;1.60;;;1.43;;
65567;SDS011;52211;50.154;8.682;2023-05-10T08:43:54;1.83;;;1.63;;
65567;SDS011;52211;50.154;8.682;2023-05-10T08:46:21;1.30;;;1.20;;
65567;SDS011;52211;50.154;8.682;2023-05-10T08:48:51;3.50;;;1.70;;
65567;SDS011;52211;50.154;8.682;2023-05-10T08:51:22;3.00;;;1.80;;
65567;SDS011;52211;50.154;8.682;2023-05-10T08:53:56;2.30;;;1.50;;
65567;SDS011;52211;50.154;8.682;2023-05-10T08:56:26;2.63;;;1.40;;
65567;SDS011;52211;50.154;8.682;2023-05-10T08:58:53;1.50;;;1.40;;
65567;SDS011;52211;50.154;8.682;2023-05-10T09:01:23;1.63;;;1.53;;
65567;SDS011;52211;50.154;8.682;2023-05-10T09:03:55;1.50;;;1.40;;
65567;SDS011;52211;50.154;8.682;2023-05-10T09:06:29;3.60;;;1.90;;
65567;SDS011;52211;50.154;8.682;2023-05-10T09:08:58;2.27;;;1.73;;
65567;SDS011;52211;50.154;8.682;2023-05-10T09:11:26;1.67;;;1.57;;
65567;SDS011;52211;50.154;8.682;2023-05-10T09:13:57;1.73;;;1.63;;
65567;SDS011;52211;50.154;8.682;2023-05-10T09:16:29;1.40;;;1.30;;
65567;SDS011;52211;50.154;8.682;2023-05-10T09:18:56;1.90;;;1.40;;
65567;SDS011;52211;50.154;8.682;2023-05-10T09:21:26;3.60;;;1.67;;
65567;SDS011;52211;50.154;8.682;2023-05-10T09:24:02;1.80;;;1.57;;
65567;SDS011;52211;50.154;8.682;2023-05-10T09:26:47;1.47;;;1.37;;
65567;SDS011;52211;50.154;8.682;2023-05-10T09:29:16;2.27;;;1.97;;
65567;SDS011;52211;50.154;8.682;2023-05-10T09:31:47;1.70;;;1.60;;
65567;SDS011;52211;50.154;8.682;2023-05-10T09:34:30;1.60;;;1.50;;
65567;SDS011;52211;50.154;8.682;2023-05-10T09:37:02;2.20;;;1.50;;
65567;SDS011;52211;50.154;8.682;2023-05-10T09:39:34;3.23;;;1.70;;
65567;SDS011;52211;50.154;8.682;2023-05-10T09:42:07;1.90;;;1.63;;
65567;SDS011;52211;50.154;8.682;2023-05-10T09:44:38;1.73;;;1.63;;
65567;SDS011;52211;50.154;8.682;2023-05-10T09:47:11;1.90;;;1.67;;
65567;SDS011;52211;50.154;8.682;2023-05-10T09:49:52;2.80;;;1.73;;
65567;SDS011;52211;50.154;8.682;2023-05-10T09:52:26;1.47;;;1.17;;
65567;SDS011;52211;50.154;8.682;2023-05-10T09:55:17;1.27;;;1.20;;
65567;SDS011;52211;50.154;8.682;2023-05-10T09:57:47;2.13;;;1.57;;
65567;SDS011;52211;50.154;8.682;2023-05-10T10:00:33;1.40;;;1.10;;
65567;SDS011;52211;50.154;8.682;2023-05-10T10:03:12;1.30;;;1.20;;
65567;SDS011;52211;50.154;8.682;2023-05-10T10:05:42;1.83;;;1.20;;
65567;SDS011;52211;50.154;8.682;2023-05-10T10:08:11;0.90;;;0.90;;
65567;SDS011;52211;50.154;8.682;2023-05-10T10:10:41;2.73;;;1.30;;
65567;SDS011;52211;50.154;8.682;2023-05-10T10:13:10;1.43;;;1.37;;
65567;SDS011;52211;50.154;8.682;2023-05-10T10:15:38;2.53;;;2.33;;
65567;SDS011;52211;50.154;8.682;2023-05-10T10:18:05;1.80;;;1.70;;
65567;SDS011;52211;50.154;8.682;2023-05-10T10:20:35;2.93;;;1.23;;
65567;SDS011;52211;50.154;8.682;2023-05-10T10:23:06;1.40;;;1.30;;
65567;SDS011;52211;50.154;8.682;2023-05-10T10:25:34;1.17;;;1.13;;
65567;SDS011;52211;50.154;8.682;2023-05-10T10:31:01;1.20;;;1.20;;
65567;SDS011;52211;50.154;8.682;2023-05-10T10:36:44;1.13;;;1.10;;
65567;SDS011;52211;50.154;8.682;2023-05-10T10:39:13;1.20;;;1.20;;
65567;SDS011;52211;50.154;8.682;2023-05-10T10:41:54;0.97;;;0.97;;
65567;SDS011;52211;50.154;8.682;2023-05-10T10:47:01;2.37;;;1.20;;
65567;SDS011;52211;50.154;8.682;2023-05-10T10:50:03;1.20;;;1.10;;
65567;SDS011;52211;50.154;8.682;2023-05-10T10:52:34;1.17;;;0.90;;
65567;SDS011;52211;50.154;8.682;2023-05-10T10:57:48;1.27;;;0.90;;
65567;SDS011;52211;50.154;8.682;2023-05-10T11:00:30;1.20;;;0.77;;
65567;SDS011;52211;50.154;8.682;2023-05-10T11:03:06;1.13;;;1.03;;
65567;SDS011;52211;50.154;8.682;2023-05-10T11:21:48;1.17;;;0.93;;
65567;SDS011;52211;50.154;8.682;2023-05-10T11:24:56;1.30;;;0.80;;
65567;SDS011;52211;50.154;8.682;2023-05-10T11:27:24;0.80;;;0.80;;
65567;SDS011;52211;50.154;8.682;2023-05-10T11:29:51;2.37;;;1.10;;
65567;SDS011;52211;50.154;8.682;2023-05-10T11:32:23;2.53;;;1.30;;
65567;SDS011;52211;50.154;8.682;2023-05-10T11:34:50;0.97;;;0.90;;
65567;SDS011;52211;50.154;8.682;2023-05-10T11:37:21;1.13;;;1.13;;
65567;SDS011;52211;50.154;8.682;2023-05-10T11:39:48;0.60;;;0.60;;
65567;SDS011;52211;50.154;8.682;2023-05-10T11:42:21;1.00;;;0.83;;
65567;SDS011;52211;50.154;8.682;2023-05-10T11:44:47;1.27;;;1.17;;
65567;SDS011;52211;50.154;8.682;2023-05-10T11:47:20;0.70;;;0.70;;
65567;SDS011;52211;50.154;8.682;2023-05-10T11:49:50;0.60;;;0.60;;
65567;SDS011;52211;50.154;8.682;2023-05-10T11:52:18;0.50;;;0.50;;
65567;SDS011;52211;50.154;8.682;2023-05-10T11:54:51;1.03;;;1.00;;
65567;SDS011;52211;50.154;8.682;2023-05-10T11:57:26;0.90;;;0.70;;
65567;SDS011;52211;50.154;8.682;2023-05-10T11:59:56;2.10;;;0.63;;
65567;SDS011;52211;50.154;8.682;2023-05-10T12:02:23;0.77;;;0.77;;
65567;SDS011;52211;50.154;8.682;2023-05-10T12:04:55;0.70;;;0.70;;
65567;SDS011;52211;50.154;8.682;2023-05-10T12:07:26;0.80;;;0.80;;
65567;SDS011;52211;50.154;8.682;2023-05-10T12:10:06;0.60;;;0.60;;
65567;SDS011;52211;50.154;8.682;2023-05-10T12:12:39;1.37;;;0.60;;
65567;SDS011;52211;50.154;8.682;2023-05-10T12:15:20;0.60;;;0.60;;
65567;SDS011;52211;50.154;8.682;2023-05-10T12:17:50;0.80;;;0.80;;
65567;SDS011;52211;50.154;8.682;2023-05-10T12:20:26;1.60;;;0.90;;
65567;SDS011;52211;50.154;8.682;2023-05-10T12:22:54;0.90;;;0.90;;
65567;SDS011;52211;50.154;8.682;2023-05-10T12:25:29;1.83;;;0.90;;
65567;SDS011;52211;50.154;8.682;2023-05-10T12:28:03;1.30;;;1.17;;
65567;SDS011;52211;50.154;8.682;2023-05-10T12:30:35;1.17;;;1.07;;
65567;SDS011;52211;50.154;8.682;2023-05-10T12:33:07;1.20;;;1.10;;
65567;SDS011;52211;50.154;8.682;2023-05-10T12:38:41;0.80;;;0.80;;
65567;SDS011;52211;50.154;8.682;2023-05-10T12:41:13;2.63;;;1.07;;
65567;SDS011;52211;50.154;8.682;2023-05-10T12:43:41;1.60;;;1.50;;
65567;SDS011;52211;50.154;8.682;2023-05-10T12:46:09;0.83;;;0.83;;
65567;SDS011;52211;50.154;8.682;2023-05-10T12:48:41;1.80;;;0.80;;
65567;SDS011;52211;50.154;8.682;2023-05-10T12:51:14;1.23;;;0.97;;
65567;SDS011;52211;50.154;8.682;2023-05-10T12:53:50;0.80;;;0.80;;
65567;SDS011;52211;50.154;8.682;2023-05-10T12:56:24;0.83;;;0.60;;
65567;SDS011;52211;50.154;8.682;2023-05-10T12:58:53;0.80;;;0.80;;
65567;SDS011;52211;50.154;8.682;2023-05-10T13:01:20;0.60;;;0.60;;
65567;SDS011;52211;50.154;8.682;2023-05-10T13:03:55;1.50;;;0.70;;
65567;SDS011;52211;50.154;8.682;2023-05-10T13:06:24;0.60;;;0.60;;
65567;SDS011;52211;50.154;8.682;2023-05-10T13:08:53;3.13;;;0.80;;
65567;SDS011;52211;50.154;8.682;2023-05-10T13:11:20;1.03;;;1.03;;
65567;SDS011;52211;50.154;8.682;2023-05-10T13:13:47;0.90;;;0.90;;
65567;SDS011;52211;50.154;8.682;2023-05-10T13:16:16;0.70;;;0.70;;
65567;SDS011;52211;50.154;8.682;2023-05-10T13:18:43;0.60;;;0.60;;
65567;SDS011;52211;50.154;8.682;2023-05-10T13:21:15;0.60;;;0.60;;
65567;SDS011;52211;50.154;8.682;2023-05-10T13:23:44;0.50;;;0.50;;
65567;SDS011;52211;50.154;8.682;2023-05-10T13:26:12;0.70;;;0.70;;
65567;SDS011;52211;50.154;8.682;2023-05-10T13:28:41;2.10;;;0.70;;
65567;SDS011;52211;50.154;8.682;2023-05-10T13:31:12;0.67;;;0.67;;
65567;SDS011;52211;50.154;8.682;2023-05-10T13:33:38;0.70;;;0.70;;
65567;SDS011;52211;50.154;8.682;2023-05-10T13:36:06;0.60;;;0.60;;
65567;SDS011;52211;50.154;8.682;2023-05-10T13:38:35;0.60;;;0.60;;
65567;SDS011;52211;50.154;8.682;2023-05-10T13:41:04;0.77;;;0.77;;
65567;SDS011;52211;50.154;8.682;2023-05-10T13:43:34;0.80;;;0.63;;
65567;SDS011;52211;50.154;8.682;2023-05-10T13:46:03;2.97;;;1.10;;
65567;SDS011;52211;50.154;8.682;2023-05-10T13:48:30;0.80;;;0.80;;
65567;SDS011;52211;50.154;8.682;2023-05-10T13:50:57;0.93;;;0.63;;
65567;SDS011;52211;50.154;8.682;2023-05-10T13:53:26;2.87;;;0.80;;
65567;SDS011;52211;50.154;8.682;2023-05-10T13:55:53;0.60;;;0.60;;
65567;SDS011;52211;50.154;8.682;2023-05-10T13:58:25;1.07;;;0.80;;
65567;SDS011;52211;50.154;8.682;2023-05-10T14:00:56;1.80;;;0.70;;
65567;SDS011;52211;50.154;8.682;2023-05-10T14:03:23;0.50;;;0.50;;
65567;SDS011;52211;50.154;8.682;2023-05-10T14:05:50;0.50;;;0.50;;
65567;SDS011;52211;50.154;8.682;2023-05-10T14:08:17;0.50;;;0.50;;
65567;SDS011;52211;50.154;8.682;2023-05-10T14:10:49;0.50;;;0.50;;
65567;SDS011;52211;50.154;8.682;2023-05-10T14:13:16;1.00;;;0.87;;
65567;SDS011;52211;50.154;8.682;2023-05-10T14:15:48;0.70;;;0.70;;
65567;SDS011;52211;50.154;8.682;2023-05-10T14:18:15;0.50;;;0.50;;
65567;SDS011;52211;50.154;8.682;2023-05-10T14:20:42;1.90;;;0.63;;
65567;SDS011;52211;50.154;8.682;2023-05-10T14:23:11;0.60;;;0.60;;
65567;SDS011;52211;50.154;8.682;2023-05-10T14:25:40;0.60;;;0.60;;
65567;SDS011;52211;50.154;8.682;2023-05-10T14:28:07;0.60;;;0.40;;
65567;SDS011;52211;50.154;8.682;2023-05-10T14:30:39;0.97;;;0.70;;
65567;SDS011;52211;50.154;8.682;2023-05-10T14:33:11;1.60;;;0.50;;
65567;SDS011;52211;50.154;8.682;2023-05-10T14:35:40;0.60;;;0.60;;
65567;SDS011;52211;50.154;8.682;2023-05-10T14:38:11;0.60;;;0.60;;
65567;SDS011;52211;50.154;8.682;2023-05-10T14:40:40;0.60;;;0.60;;
65567;SDS011;52211;50.154;8.682;2023-05-10T14:43:08;1.53;;;0.70;;
65567;SDS011;52211;50.154;8.682;2023-05-10T14:45:35;1.00;;;0.60;;
65567;SDS011;52211;50.154;8.682;2023-05-10T14:48:09;0.60;;;0.60;;
65567;SDS011;52211;50.154;8.682;2023-05-10T14:50:41;1.50;;;0.70;;
65567;SDS011;52211;50.154;8.682;2023-05-10T14:53:08;0.77;;;0.57;;
65567;SDS011;52211;50.154;8.682;2023-05-10T14:55:38;0.40;;;0.40;;
65567;SDS011;52211;50.154;8.682;2023-05-10T14:58:07;0.40;;;0.40;;
65567;SDS011;52211;50.154;8.682;2023-05-10T15:00:34;0.57;;;0.57;;
65567;SDS011;52211;50.154;8.682;2023-05-10T15:03:02;0.77;;;0.60;;
65567;SDS011;52211;50.154;8.682;2023-05-10T15:05:30;0.60;;;0.60;;
65567;SDS011;52211;50.154;8.682;2023-05-10T15:08:03;0.50;;;0.50;;
65567;SDS011;52211;50.154;8.682;2023-05-10T15:10:36;0.50;;;0.50;;
65567;SDS011;52211;50.154;8.682;2023-05-10T15:13:05;1.03;;;0.60;;
65567;SDS011;52211;50.154;8.682;2023-05-10T15:15:37;0.40;;;0.40;;
65567;SDS011;52211;50.154;8.682;2023-05-10T15:18:06;1.03;;;0.80;;
65567;SDS011;52211;50.154;8.682;2023-05-10T15:20:36;0.60;;;0.60;;
65567;SDS011;52211;50.154;8.682;2023-05-10T15:23:05;0.73;;;0.60;;
65567;SDS011;52211;50.154;8.682;2023-05-10T15:25:34;1.43;;;1.07;;
65567;SDS011;52211;50.154;8.682;2023-05-10T15:28:03;0.70;;;0.70;;
65567;SDS011;52211;50.154;8.682;2023-05-10T15:30:33;1.70;;;0.40;;
65567;SDS011;52211;50.154;8.682;2023-05-10T15:32:59;0.63;;;0.50;;
65567;SDS011;52211;50.154;8.682;2023-05-10T15:35:27;0.73;;;0.60;;
65567;SDS011;52211;50.154;8.682;2023-05-10T15:37:56;0.47;;;0.47;;
65567;SDS011;52211;50.154;8.682;2023-05-10T15:40:25;0.50;;;0.50;;
65567;SDS011;52211;50.154;8.682;2023-05-10T15:42:54;0.60;;;0.60;;
65567;SDS011;52211;50.154;8.682;2023-05-10T15:45:21;1.30;;;0.73;;
65567;SDS011;52211;50.154;8.682;2023-05-10T15:47:48;0.60;;;0.60;;
65567;SDS011;52211;50.154;8.682;2023-05-10T15:50:15;0.60;;;0.60;;
65567;SDS011;52211;50.154;8.682;2023-05-10T15:52:45;1.27;;;0.63;;
65567;SDS011;52211;50.154;8.682;2023-05-10T15:55:12;2.20;;;0.93;;
65567;SDS011;52211;50.154;8.682;2023-05-10T15:57:45;2.43;;;0.67;;
65567;SDS011;52211;50.154;8.682;2023-05-10T16:00:13;0.70;;;0.70;;
65567;SDS011;52211;50.154;8.682;2023-05-10T16:02:43;0.80;;;0.80;;